Flight Track Log - Related Links

Times and Time Zones

All times are in EDT time to prevent confusion due to time zone crossing. See the N1169Z flight status page for this flight to view local times or setup timezone preferences in your user account.

Time Position Orientation Groundspeed Altitude Reporting Facility
EDT Latitude Longitude Course Direction KTS MPH feet Rate Location/Type
Thu 04:48:24 PM 45.0997 -95.0533 101° East 109 125 2,800  Level Minneapolis Center
Thu 04:49:26 PM 45.0936 -95.0092 101° East 115 132 3,400 576 Climbing Minneapolis Center
Thu 04:50:29 PM 45.0875 -94.9644 101° East 115 132 4,000 480 Climbing Minneapolis Center
Thu 04:51:31 PM 45.0811 -94.9186 101° East 117 135 4,400 435 Climbing Minneapolis Center
Thu 04:52:33 PM 45.0722 -94.8711 105° East 123 142 4,900 290 Climbing Minneapolis Center
Thu 04:53:35 PM 45.0617 -94.8181 106° East 134 154 5,000 48 Climbing Minneapolis Center
Thu 04:54:37 PM 45.0503 -94.7481 103° East 148 170 5,000  Level Minneapolis Center
Thu 04:55:39 PM 45.0450 -94.6892 97° East 151 174 5,000  Level Minneapolis Center
Thu 04:56:41 PM 45.0383 -94.6364 100° East 150 173 5,000  Level Minneapolis Center
Thu 04:57:43 PM 45.0242 -94.5800 110° East 151 174 5,000  Level Minneapolis Center
Thu 04:58:45 PM 45.0144 -94.5106 101° East 153 176 5,000  Level Minneapolis Center
Thu 04:59:47 PM 45.0025 -94.4553 107° East 148 170 5,000  Level Minneapolis Center
Thu 05:00:49 PM 44.9928 -94.3978 103° East 152 175 5,000  Level Minneapolis Center
Thu 05:01:51 PM 44.9806 -94.3433 108° East 145 167 5,000  Level Minneapolis Center
Thu 05:02:54 PM 44.9697 -94.2875 105° East 147 169 5,000  Level Minneapolis Center
Thu 05:03:56 PM 44.9569 -94.2203 105° East 148 170 5,000  Level Minneapolis Center
Thu 05:04:58 PM 44.9478 -94.1625 103° East 150 173 5,000  Level Minneapolis Center
Thu 05:06:00 PM 44.9375 -94.1058 104° East 149 171 5,000  Level Minneapolis Center
Thu 05:07:02 PM 44.9333 -94.0469 96° East 150 173 5,000 -97 Level Minneapolis Center
Thu 05:08:04 PM 44.9278 -93.9886 98° East 149 171 4,800 -387 Descending Minneapolis Center
Thu 05:09:06 PM 44.9161 -93.9269 105° East 161 185 4,200 -532 Descending Minneapolis Center
Thu 05:10:08 PM 44.9022 -93.8547 105° East 161 185 3,700 -484 Descending Minneapolis Center
Thu 05:11:10 PM 44.8939 -93.7933 101° East 161 185 3,200 -339 Descending Minneapolis Center
Thu 05:12:12 PM 44.8817 -93.7344 106° East 156 180 3,000 -339 Descending Minneapolis Center
Thu 05:13:14 PM 44.8708 -93.6761 105° East 156 180 2,500 -336 Descending Minneapolis Center
Thu 05:14:17 PM 44.8608 -93.6167 103° East 156 180 2,300 -240 Descending Minneapolis Center
Thu 05:15:19 PM 44.8514 -93.5589 103° East 153 176 2,000 -242 Descending Minneapolis Center
Thu 05:16:21 PM 44.8433 -93.4961 100° East 137 158 1,800 -387 Descending Minneapolis Center
Thu 05:17:23 PM 44.8381 -93.4542 100° East 109 125 1,200 -435 Descending Minneapolis Center
Thu 05:18:25 PM 44.8189 -93.4539 179° South 89 102 900 -290 Descending Minneapolis Center
Thu 05:20:00 PM 44.8167 -93.4500 125° Southeast  Level FlightAware Approximate

Login

Don't have an account? Register now (free) for customized features, flight alerts, and more!